Terminal Aerodrome Forecast
Issued by NWS Bismarck, ND

Home | Current Version | Previous Version | Text Only | Print | Product List | Glossary Off
Versions: 1 2 3 4 5 6 7 8 9 10 11 12 13 14 15 16 17 18 19

000
FTUS43 KBIS 261100
TAFBIS
TAF
KBIS 261135Z 2612/2712 VRB03KT P6SM SCT060 OVC080
      TEMPO 2612/2615 -SHSN BKN060
     FM261500 05005KT P6SM BKN045 OVC070
     FM270100 09008KT P6SM BKN045 BKN060
     FM270800 13008KT P6SM -SN BKN035 OVC100=

USA.gov is the U.S. government's official web portal to all federal, state and local government web resources and services.